sensor_id;sensor_type;location;lat;lon;timestamp;P1;durP1;ratioP1;P2;durP2;ratioP2
65799;SDS011;52544;48.116;11.660;2023-02-02T00:01:38;6.22;;;1.77;;
65799;SDS011;52544;48.116;11.660;2023-02-02T00:04:04;8.48;;;2.42;;
65799;SDS011;52544;48.116;11.660;2023-02-02T00:06:30;9.90;;;1.38;;
65799;SDS011;52544;48.116;11.660;2023-02-02T00:08:57;6.25;;;1.55;;
65799;SDS011;52544;48.116;11.660;2023-02-02T00:11:24;3.50;;;1.52;;
65799;SDS011;52544;48.116;11.660;2023-02-02T00:13:50;4.15;;;1.73;;
65799;SDS011;52544;48.116;11.660;2023-02-02T00:18:50;5.72;;;1.80;;
65799;SDS011;52544;48.116;11.660;2023-02-02T00:21:15;5.60;;;2.08;;
65799;SDS011;52544;48.116;11.660;2023-02-02T00:23:41;5.07;;;1.73;;
65799;SDS011;52544;48.116;11.660;2023-02-02T00:26:07;4.97;;;1.73;;
65799;SDS011;52544;48.116;11.660;2023-02-02T00:28:33;4.90;;;2.00;;
65799;SDS011;52544;48.116;11.660;2023-02-02T00:30:59;8.45;;;1.77;;
65799;SDS011;52544;48.116;11.660;2023-02-02T00:33:24;7.05;;;1.92;;
65799;SDS011;52544;48.116;11.660;2023-02-02T00:35:52;5.00;;;1.95;;
65799;SDS011;52544;48.116;11.660;2023-02-02T00:38:18;7.13;;;1.88;;
65799;SDS011;52544;48.116;11.660;2023-02-02T00:40:44;4.20;;;2.08;;
65799;SDS011;52544;48.116;11.660;2023-02-02T00:43:09;9.13;;;2.38;;
65799;SDS011;52544;48.116;11.660;2023-02-02T00:45:35;6.28;;;3.35;;
65799;SDS011;52544;48.116;11.660;2023-02-02T00:48:01;5.65;;;2.42;;
65799;SDS011;52544;48.116;11.660;2023-02-02T00:50:27;4.32;;;1.80;;
65799;SDS011;52544;48.116;11.660;2023-02-02T00:52:53;5.55;;;1.60;;
65799;SDS011;52544;48.116;11.660;2023-02-02T00:55:18;6.55;;;2.15;;
65799;SDS011;52544;48.116;11.660;2023-02-02T00:57:44;8.20;;;1.58;;
65799;SDS011;52544;48.116;11.660;2023-02-02T01:00:11;7.72;;;1.95;;
65799;SDS011;52544;48.116;11.660;2023-02-02T01:02:41;6.07;;;1.70;;
65799;SDS011;52544;48.116;11.660;2023-02-02T01:05:07;6.60;;;1.88;;
65799;SDS011;52544;48.116;11.660;2023-02-02T01:07:33;8.35;;;1.80;;
65799;SDS011;52544;48.116;11.660;2023-02-02T01:09:59;5.07;;;1.65;;
65799;SDS011;52544;48.116;11.660;2023-02-02T01:12:24;6.03;;;1.95;;
65799;SDS011;52544;48.116;11.660;2023-02-02T01:14:49;5.03;;;1.80;;
65799;SDS011;52544;48.116;11.660;2023-02-02T01:17:15;6.80;;;1.85;;
65799;SDS011;52544;48.116;11.660;2023-02-02T01:19:41;8.13;;;2.00;;
65799;SDS011;52544;48.116;11.660;2023-02-02T01:22:07;3.75;;;1.92;;
65799;SDS011;52544;48.116;11.660;2023-02-02T01:24:32;5.95;;;1.80;;
65799;SDS011;52544;48.116;11.660;2023-02-02T01:26:58;7.28;;;2.05;;
65799;SDS011;52544;48.116;11.660;2023-02-02T01:29:23;4.75;;;1.90;;
65799;SDS011;52544;48.116;11.660;2023-02-02T01:31:49;5.32;;;1.60;;
65799;SDS011;52544;48.116;11.660;2023-02-02T01:34:14;7.03;;;1.73;;
65799;SDS011;52544;48.116;11.660;2023-02-02T01:36:39;5.38;;;2.00;;
65799;SDS011;52544;48.116;11.660;2023-02-02T01:39:05;7.32;;;2.08;;
65799;SDS011;52544;48.116;11.660;2023-02-02T01:41:30;6.70;;;2.00;;
65799;SDS011;52544;48.116;11.660;2023-02-02T01:43:57;6.65;;;1.70;;
65799;SDS011;52544;48.116;11.660;2023-02-02T01:51:33;4.05;;;1.48;;
65799;SDS011;52544;48.116;11.660;2023-02-02T01:54:04;3.15;;;1.45;;
65799;SDS011;52544;48.116;11.660;2023-02-02T01:56:34;10.85;;;3.92;;
65799;SDS011;52544;48.116;11.660;2023-02-02T01:59:06;4.55;;;1.80;;
65799;SDS011;52544;48.116;11.660;2023-02-02T02:01:32;7.22;;;1.80;;
65799;SDS011;52544;48.116;11.660;2023-02-02T02:03:57;9.18;;;1.83;;
65799;SDS011;52544;48.116;11.660;2023-02-02T02:06:23;10.07;;;1.88;;
65799;SDS011;52544;48.116;11.660;2023-02-02T02:08:57;5.57;;;1.33;;
65799;SDS011;52544;48.116;11.660;2023-02-02T02:11:24;9.88;;;1.90;;
65799;SDS011;52544;48.116;11.660;2023-02-02T02:13:51;6.10;;;1.70;;
65799;SDS011;52544;48.116;11.660;2023-02-02T02:31:41;5.10;;;1.70;;
65799;SDS011;52544;48.116;11.660;2023-02-02T02:34:22;6.50;;;2.08;;
65799;SDS011;52544;48.116;11.660;2023-02-02T02:39:29;6.25;;;1.80;;
65799;SDS011;52544;48.116;11.660;2023-02-02T02:42:03;3.97;;;1.70;;
65799;SDS011;52544;48.116;11.660;2023-02-02T02:44:34;5.60;;;1.63;;
65799;SDS011;52544;48.116;11.660;2023-02-02T02:47:00;3.97;;;1.75;;
65799;SDS011;52544;48.116;11.660;2023-02-02T02:49:26;7.13;;;1.50;;
65799;SDS011;52544;48.116;11.660;2023-02-02T02:51:52;4.80;;;1.50;;
65799;SDS011;52544;48.116;11.660;2023-02-02T02:59:28;5.68;;;1.73;;
65799;SDS011;52544;48.116;11.660;2023-02-02T03:05:12;2.92;;;1.52;;
65799;SDS011;52544;48.116;11.660;2023-02-02T03:08:19;5.75;;;1.30;;
65799;SDS011;52544;48.116;11.660;2023-02-02T03:10:38;7.03;;;2.30;;
65799;SDS011;52544;48.116;11.660;2023-02-02T03:13:07;3.85;;;1.38;;
65799;SDS011;52544;48.116;11.660;2023-02-02T03:15:34;5.88;;;1.73;;
65799;SDS011;52544;48.116;11.660;2023-02-02T03:18:00;8.48;;;1.85;;
65799;SDS011;52544;48.116;11.660;2023-02-02T03:20:25;2.67;;;1.50;;
65799;SDS011;52544;48.116;11.660;2023-02-02T03:22:51;3.08;;;1.33;;
65799;SDS011;52544;48.116;11.660;2023-02-02T03:25:16;3.63;;;1.65;;
65799;SDS011;52544;48.116;11.660;2023-02-02T03:27:41;5.35;;;1.55;;
65799;SDS011;52544;48.116;11.660;2023-02-02T03:30:08;6.65;;;1.60;;
65799;SDS011;52544;48.116;11.660;2023-02-02T03:32:36;6.00;;;1.98;;
65799;SDS011;52544;48.116;11.660;2023-02-02T03:35:02;9.80;;;2.08;;
65799;SDS011;52544;48.116;11.660;2023-02-02T03:37:28;7.45;;;2.17;;
65799;SDS011;52544;48.116;11.660;2023-02-02T03:39:53;5.20;;;1.60;;
65799;SDS011;52544;48.116;11.660;2023-02-02T03:42:19;4.03;;;1.58;;
65799;SDS011;52544;48.116;11.660;2023-02-02T03:44:44;8.63;;;1.70;;
65799;SDS011;52544;48.116;11.660;2023-02-02T03:47:10;6.50;;;1.85;;
65799;SDS011;52544;48.116;11.660;2023-02-02T03:49:35;5.05;;;1.90;;
65799;SDS011;52544;48.116;11.660;2023-02-02T03:52:00;4.35;;;1.80;;
65799;SDS011;52544;48.116;11.660;2023-02-02T03:54:28;5.85;;;2.20;;
65799;SDS011;52544;48.116;11.660;2023-02-02T03:56:53;10.20;;;2.28;;
65799;SDS011;52544;48.116;11.660;2023-02-02T03:59:19;6.75;;;2.25;;
65799;SDS011;52544;48.116;11.660;2023-02-02T04:01:44;5.80;;;2.05;;
65799;SDS011;52544;48.116;11.660;2023-02-02T04:04:09;5.28;;;2.28;;
65799;SDS011;52544;48.116;11.660;2023-02-02T04:06:35;6.95;;;2.25;;
65799;SDS011;52544;48.116;11.660;2023-02-02T04:09:00;7.25;;;1.80;;
65799;SDS011;52544;48.116;11.660;2023-02-02T04:11:26;11.30;;;1.70;;
65799;SDS011;52544;48.116;11.660;2023-02-02T04:13:51;7.10;;;1.85;;
65799;SDS011;52544;48.116;11.660;2023-02-02T04:16:16;6.05;;;1.83;;
65799;SDS011;52544;48.116;11.660;2023-02-02T04:18:42;5.63;;;1.80;;
65799;SDS011;52544;48.116;11.660;2023-02-02T04:21:07;6.72;;;2.00;;
65799;SDS011;52544;48.116;11.660;2023-02-02T04:23:33;9.02;;;1.88;;
65799;SDS011;52544;48.116;11.660;2023-02-02T04:25:58;3.85;;;1.42;;
65799;SDS011;52544;48.116;11.660;2023-02-02T04:28:24;6.93;;;1.20;;
65799;SDS011;52544;48.116;11.660;2023-02-02T04:30:51;4.68;;;1.50;;
65799;SDS011;52544;48.116;11.660;2023-02-02T04:33:18;5.45;;;1.50;;
65799;SDS011;52544;48.116;11.660;2023-02-02T04:35:44;6.85;;;1.80;;
65799;SDS011;52544;48.116;11.660;2023-02-02T04:38:10;5.25;;;1.67;;
65799;SDS011;52544;48.116;11.660;2023-02-02T04:40:39;2.88;;;1.45;;
65799;SDS011;52544;48.116;11.660;2023-02-02T04:43:06;5.28;;;1.60;;
65799;SDS011;52544;48.116;11.660;2023-02-02T04:45:31;4.35;;;1.90;;
65799;SDS011;52544;48.116;11.660;2023-02-02T04:47:57;6.50;;;1.83;;
65799;SDS011;52544;48.116;11.660;2023-02-02T04:50:22;6.35;;;1.98;;
65799;SDS011;52544;48.116;11.660;2023-02-02T04:52:48;9.30;;;1.90;;
65799;SDS011;52544;48.116;11.660;2023-02-02T04:55:13;9.48;;;2.42;;
65799;SDS011;52544;48.116;11.660;2023-02-02T04:57:39;5.45;;;1.88;;
65799;SDS011;52544;48.116;11.660;2023-02-02T05:00:05;5.45;;;1.60;;
65799;SDS011;52544;48.116;11.660;2023-02-02T05:02:30;7.03;;;2.10;;
65799;SDS011;52544;48.116;11.660;2023-02-02T05:04:59;10.25;;;1.55;;
65799;SDS011;52544;48.116;11.660;2023-02-02T05:07:25;5.70;;;2.00;;
65799;SDS011;52544;48.116;11.660;2023-02-02T05:09:50;4.57;;;1.60;;
65799;SDS011;52544;48.116;11.660;2023-02-02T05:12:16;4.63;;;1.67;;
65799;SDS011;52544;48.116;11.660;2023-02-02T05:14:41;7.80;;;2.22;;
65799;SDS011;52544;48.116;11.660;2023-02-02T05:17:06;5.00;;;1.50;;
65799;SDS011;52544;48.116;11.660;2023-02-02T05:19:32;6.53;;;1.70;;
65799;SDS011;52544;48.116;11.660;2023-02-02T05:21:57;4.95;;;1.80;;
65799;SDS011;52544;48.116;11.660;2023-02-02T05:24:22;3.20;;;1.33;;
65799;SDS011;52544;48.116;11.660;2023-02-02T05:26:48;7.97;;;1.52;;
65799;SDS011;52544;48.116;11.660;2023-02-02T05:29:13;11.80;;;1.90;;
65799;SDS011;52544;48.116;11.660;2023-02-02T05:31:39;7.03;;;1.60;;
65799;SDS011;52544;48.116;11.660;2023-02-02T05:34:04;2.13;;;1.20;;
65799;SDS011;52544;48.116;11.660;2023-02-02T05:36:31;4.70;;;1.67;;
65799;SDS011;52544;48.116;11.660;2023-02-02T05:38:56;5.63;;;1.60;;
65799;SDS011;52544;48.116;11.660;2023-02-02T05:41:22;4.55;;;1.67;;
65799;SDS011;52544;48.116;11.660;2023-02-02T05:43:47;3.13;;;1.48;;
65799;SDS011;52544;48.116;11.660;2023-02-02T05:46:13;3.22;;;1.52;;
65799;SDS011;52544;48.116;11.660;2023-02-02T05:48:38;3.45;;;1.40;;
65799;SDS011;52544;48.116;11.660;2023-02-02T05:51:05;8.95;;;1.80;;
65799;SDS011;52544;48.116;11.660;2023-02-02T05:53:36;3.08;;;1.50;;
65799;SDS011;52544;48.116;11.660;2023-02-02T05:56:01;3.20;;;1.58;;
65799;SDS011;52544;48.116;11.660;2023-02-02T05:58:27;6.60;;;1.80;;
65799;SDS011;52544;48.116;11.660;2023-02-02T06:00:53;3.58;;;1.15;;
65799;SDS011;52544;48.116;11.660;2023-02-02T06:03:18;5.90;;;1.70;;
65799;SDS011;52544;48.116;11.660;2023-02-02T06:05:44;5.25;;;1.40;;
65799;SDS011;52544;48.116;11.660;2023-02-02T06:08:09;6.95;;;1.30;;
65799;SDS011;52544;48.116;11.660;2023-02-02T06:10:37;3.55;;;1.33;;
65799;SDS011;52544;48.116;11.660;2023-02-02T06:13:03;6.30;;;1.77;;
65799;SDS011;52544;48.116;11.660;2023-02-02T06:15:29;3.80;;;1.70;;
65799;SDS011;52544;48.116;11.660;2023-02-02T06:17:55;3.10;;;1.38;;
65799;SDS011;52544;48.116;11.660;2023-02-02T06:20:22;3.60;;;1.35;;
65799;SDS011;52544;48.116;11.660;2023-02-02T06:22:47;1.95;;;1.30;;
65799;SDS011;52544;48.116;11.660;2023-02-02T06:25:12;5.93;;;1.63;;
65799;SDS011;52544;48.116;11.660;2023-02-02T06:27:38;5.53;;;1.73;;
65799;SDS011;52544;48.116;11.660;2023-02-02T06:30:04;3.13;;;1.33;;
65799;SDS011;52544;48.116;11.660;2023-02-02T06:32:29;5.65;;;1.58;;
65799;SDS011;52544;48.116;11.660;2023-02-02T06:34:55;5.13;;;1.33;;
65799;SDS011;52544;48.116;11.660;2023-02-02T06:37:20;8.05;;;2.25;;
65799;SDS011;52544;48.116;11.660;2023-02-02T06:39:46;5.68;;;1.55;;
65799;SDS011;52544;48.116;11.660;2023-02-02T06:42:11;5.60;;;1.65;;
65799;SDS011;52544;48.116;11.660;2023-02-02T06:44:37;5.85;;;1.52;;
65799;SDS011;52544;48.116;11.660;2023-02-02T06:47:02;3.60;;;1.48;;
65799;SDS011;52544;48.116;11.660;2023-02-02T06:49:27;3.55;;;1.67;;
65799;SDS011;52544;48.116;11.660;2023-02-02T06:51:53;3.97;;;1.17;;
65799;SDS011;52544;48.116;11.660;2023-02-02T06:54:18;3.72;;;2.00;;
65799;SDS011;52544;48.116;11.660;2023-02-02T06:56:44;2.90;;;1.30;;
65799;SDS011;52544;48.116;11.660;2023-02-02T06:59:09;3.45;;;1.55;;
65799;SDS011;52544;48.116;11.660;2023-02-02T07:01:34;4.28;;;2.13;;
65799;SDS011;52544;48.116;11.660;2023-02-02T07:04:00;8.32;;;2.58;;
65799;SDS011;52544;48.116;11.660;2023-02-02T07:06:26;2.05;;;1.20;;
65799;SDS011;52544;48.116;11.660;2023-02-02T07:08:53;5.05;;;1.55;;
65799;SDS011;52544;48.116;11.660;2023-02-02T07:11:20;6.70;;;1.67;;
65799;SDS011;52544;48.116;11.660;2023-02-02T07:13:47;3.65;;;1.60;;
65799;SDS011;52544;48.116;11.660;2023-02-02T07:16:13;5.15;;;1.60;;
65799;SDS011;52544;48.116;11.660;2023-02-02T07:18:40;5.47;;;1.35;;
65799;SDS011;52544;48.116;11.660;2023-02-02T07:21:14;9.10;;;2.20;;
65799;SDS011;52544;48.116;11.660;2023-02-02T07:23:41;6.57;;;1.67;;
65799;SDS011;52544;48.116;11.660;2023-02-02T07:26:08;3.10;;;1.50;;
65799;SDS011;52544;48.116;11.660;2023-02-02T07:28:34;5.38;;;1.65;;
65799;SDS011;52544;48.116;11.660;2023-02-02T07:31:00;3.33;;;1.75;;
65799;SDS011;52544;48.116;11.660;2023-02-02T07:33:46;5.00;;;1.50;;
65799;SDS011;52544;48.116;11.660;2023-02-02T07:36:13;2.97;;;1.77;;
65799;SDS011;52544;48.116;11.660;2023-02-02T07:38:43;7.38;;;2.15;;
65799;SDS011;52544;48.116;11.660;2023-02-02T07:41:10;2.65;;;1.60;;
65799;SDS011;52544;48.116;11.660;2023-02-02T07:43:36;5.07;;;1.70;;
65799;SDS011;52544;48.116;11.660;2023-02-02T07:46:02;4.43;;;1.70;;
65799;SDS011;52544;48.116;11.660;2023-02-02T07:48:30;2.63;;;1.48;;
65799;SDS011;52544;48.116;11.660;2023-02-02T07:50:59;7.65;;;1.45;;
65799;SDS011;52544;48.116;11.660;2023-02-02T07:53:26;7.07;;;1.95;;
65799;SDS011;52544;48.116;11.660;2023-02-02T07:55:52;3.08;;;1.67;;
65799;SDS011;52544;48.116;11.660;2023-02-02T07:58:17;6.53;;;2.20;;
65799;SDS011;52544;48.116;11.660;2023-02-02T08:00:42;3.92;;;2.00;;
65799;SDS011;52544;48.116;11.660;2023-02-02T08:03:11;6.55;;;1.70;;
65799;SDS011;52544;48.116;11.660;2023-02-02T08:05:36;7.95;;;2.38;;
65799;SDS011;52544;48.116;11.660;2023-02-02T08:08:02;6.93;;;2.03;;
65799;SDS011;52544;48.116;11.660;2023-02-02T08:10:28;6.72;;;1.50;;
65799;SDS011;52544;48.116;11.660;2023-02-02T08:12:54;3.92;;;1.65;;
65799;SDS011;52544;48.116;11.660;2023-02-02T08:15:20;4.30;;;2.28;;
65799;SDS011;52544;48.116;11.660;2023-02-02T08:17:45;7.03;;;1.85;;
65799;SDS011;52544;48.116;11.660;2023-02-02T08:20:13;8.15;;;1.85;;
65799;SDS011;52544;48.116;11.660;2023-02-02T08:22:39;5.80;;;1.90;;
65799;SDS011;52544;48.116;11.660;2023-02-02T08:25:05;5.88;;;1.90;;
65799;SDS011;52544;48.116;11.660;2023-02-02T08:27:31;4.85;;;1.65;;
65799;SDS011;52544;48.116;11.660;2023-02-02T08:29:56;5.35;;;1.50;;
65799;SDS011;52544;48.116;11.660;2023-02-02T08:32:22;5.82;;;1.83;;
65799;SDS011;52544;48.116;11.660;2023-02-02T08:34:47;3.55;;;1.67;;
65799;SDS011;52544;48.116;11.660;2023-02-02T08:37:13;6.72;;;1.58;;
65799;SDS011;52544;48.116;11.660;2023-02-02T08:39:38;7.75;;;1.75;;
65799;SDS011;52544;48.116;11.660;2023-02-02T08:42:04;4.53;;;2.20;;
65799;SDS011;52544;48.116;11.660;2023-02-02T08:44:29;4.90;;;2.28;;
65799;SDS011;52544;48.116;11.660;2023-02-02T08:46:55;3.45;;;1.83;;
65799;SDS011;52544;48.116;11.660;2023-02-02T08:49:20;8.35;;;2.17;;
65799;SDS011;52544;48.116;11.660;2023-02-02T08:51:46;3.22;;;1.98;;
65799;SDS011;52544;48.116;11.660;2023-02-02T08:54:11;7.38;;;2.08;;
65799;SDS011;52544;48.116;11.660;2023-02-02T08:56:37;5.95;;;2.03;;
65799;SDS011;52544;48.116;11.660;2023-02-02T08:59:02;7.20;;;2.17;;
65799;SDS011;52544;48.116;11.660;2023-02-02T09:01:30;6.43;;;2.40;;
65799;SDS011;52544;48.116;11.660;2023-02-02T09:04:04;9.07;;;2.55;;
65799;SDS011;52544;48.116;11.660;2023-02-02T09:06:31;3.55;;;2.50;;
65799;SDS011;52544;48.116;11.660;2023-02-02T09:08:57;5.57;;;2.50;;
65799;SDS011;52544;48.116;11.660;2023-02-02T09:11:23;5.90;;;2.08;;
65799;SDS011;52544;48.116;11.660;2023-02-02T09:13:52;7.05;;;2.55;;
65799;SDS011;52544;48.116;11.660;2023-02-02T09:16:21;7.15;;;2.38;;
65799;SDS011;52544;48.116;11.660;2023-02-02T09:18:47;6.95;;;2.03;;
65799;SDS011;52544;48.116;11.660;2023-02-02T09:21:13;5.40;;;2.28;;
65799;SDS011;52544;48.116;11.660;2023-02-02T09:23:40;4.85;;;2.40;;
65799;SDS011;52544;48.116;11.660;2023-02-02T09:26:08;2.90;;;1.80;;
65799;SDS011;52544;48.116;11.660;2023-02-02T09:28:35;6.38;;;2.03;;
65799;SDS011;52544;48.116;11.660;2023-02-02T09:31:02;4.53;;;2.25;;
65799;SDS011;52544;48.116;11.660;2023-02-02T09:33:27;7.45;;;1.80;;
65799;SDS011;52544;48.116;11.660;2023-02-02T09:35:53;5.18;;;1.80;;
65799;SDS011;52544;48.116;11.660;2023-02-02T09:38:18;7.72;;;2.10;;
65799;SDS011;52544;48.116;11.660;2023-02-02T09:40:43;5.68;;;1.90;;
65799;SDS011;52544;48.116;11.660;2023-02-02T09:43:28;3.80;;;1.80;;
65799;SDS011;52544;48.116;11.660;2023-02-02T09:48:53;3.70;;;1.90;;
65799;SDS011;52544;48.116;11.660;2023-02-02T09:51:25;4.45;;;2.35;;
65799;SDS011;52544;48.116;11.660;2023-02-02T09:56:46;6.82;;;2.08;;
65799;SDS011;52544;48.116;11.660;2023-02-02T09:59:19;6.47;;;2.33;;
65799;SDS011;52544;48.116;11.660;2023-02-02T10:01:49;6.88;;;1.98;;
65799;SDS011;52544;48.116;11.660;2023-02-02T10:04:30;3.88;;;2.15;;
65799;SDS011;52544;48.116;11.660;2023-02-02T10:06:59;7.45;;;2.00;;
65799;SDS011;52544;48.116;11.660;2023-02-02T10:22:50;3.92;;;1.90;;
65799;SDS011;52544;48.116;11.660;2023-02-02T10:25:21;4.13;;;2.15;;
65799;SDS011;52544;48.116;11.660;2023-02-02T10:27:58;7.22;;;2.45;;
65799;SDS011;52544;48.116;11.660;2023-02-02T10:30:43;2.97;;;1.63;;
65799;SDS011;52544;48.116;11.660;2023-02-02T10:33:18;4.00;;;1.90;;
65799;SDS011;52544;48.116;11.660;2023-02-02T10:36:01;3.20;;;1.90;;
65799;SDS011;52544;48.116;11.660;2023-02-02T10:41:13;4.95;;;1.90;;
65799;SDS011;52544;48.116;11.660;2023-02-02T10:46:39;4.88;;;2.13;;
65799;SDS011;52544;48.116;11.660;2023-02-02T10:49:14;4.30;;;2.08;;
65799;SDS011;52544;48.116;11.660;2023-02-02T10:51:50;4.57;;;2.17;;
65799;SDS011;52544;48.116;11.660;2023-02-02T10:54:54;8.02;;;2.20;;
65799;SDS011;52544;48.116;11.660;2023-02-02T10:57:30;5.90;;;1.90;;
65799;SDS011;52544;48.116;11.660;2023-02-02T11:00:17;5.22;;;1.67;;
65799;SDS011;52544;48.116;11.660;2023-02-02T11:02:50;6.97;;;2.05;;
65799;SDS011;52544;48.116;11.660;2023-02-02T11:05:20;2.97;;;1.95;;
65799;SDS011;52544;48.116;11.660;2023-02-02T11:11:22;5.40;;;2.00;;
65799;SDS011;52544;48.116;11.660;2023-02-02T11:16:24;2.33;;;1.55;;
65799;SDS011;52544;48.116;11.660;2023-02-02T11:21:46;3.17;;;1.70;;
65799;SDS011;52544;48.116;11.660;2023-02-02T11:24:23;5.03;;;1.63;;
65799;SDS011;52544;48.116;11.660;2023-02-02T11:29:43;3.65;;;2.00;;
65799;SDS011;52544;48.116;11.660;2023-02-02T11:32:19;3.80;;;1.50;;
65799;SDS011;52544;48.116;11.660;2023-02-02T11:34:45;3.47;;;1.52;;
65799;SDS011;52544;48.116;11.660;2023-02-02T11:39:36;2.85;;;1.23;;
65799;SDS011;52544;48.116;11.660;2023-02-02T11:42:03;3.90;;;1.40;;
65799;SDS011;52544;48.116;11.660;2023-02-02T11:44:32;2.78;;;1.65;;
65799;SDS011;52544;48.116;11.660;2023-02-02T11:47:00;4.43;;;1.50;;
65799;SDS011;52544;48.116;11.660;2023-02-02T11:49:31;4.60;;;1.60;;
65799;SDS011;52544;48.116;11.660;2023-02-02T11:52:04;3.65;;;1.60;;
65799;SDS011;52544;48.116;11.660;2023-02-02T11:54:32;3.30;;;1.60;;
65799;SDS011;52544;48.116;11.660;2023-02-02T11:57:00;3.13;;;1.20;;
65799;SDS011;52544;48.116;11.660;2023-02-02T12:05:11;5.80;;;1.50;;
65799;SDS011;52544;48.116;11.660;2023-02-02T12:07:47;5.68;;;2.22;;
65799;SDS011;52544;48.116;11.660;2023-02-02T12:10:15;3.45;;;1.80;;
65799;SDS011;52544;48.116;11.660;2023-02-02T12:13:04;1.67;;;1.20;;
65799;SDS011;52544;48.116;11.660;2023-02-02T12:18:21;5.25;;;1.70;;
65799;SDS011;52544;48.116;11.660;2023-02-02T12:21:05;3.35;;;1.83;;
65799;SDS011;52544;48.116;11.660;2023-02-02T12:34:18;1.90;;;1.40;;
65799;SDS011;52544;48.116;11.660;2023-02-02T12:37:40;5.15;;;1.52;;
65799;SDS011;52544;48.116;11.660;2023-02-02T12:39:53;3.25;;;1.50;;
65799;SDS011;52544;48.116;11.660;2023-02-02T12:45:25;3.58;;;1.45;;
65799;SDS011;52544;48.116;11.660;2023-02-02T12:50:50;7.50;;;1.80;;
65799;SDS011;52544;48.116;11.660;2023-02-02T13:01:59;3.60;;;1.92;;
65799;SDS011;52544;48.116;11.660;2023-02-02T13:12:46;2.53;;;1.42;;
65799;SDS011;52544;48.116;11.660;2023-02-02T13:15:21;2.33;;;1.20;;
65799;SDS011;52544;48.116;11.660;2023-02-02T13:17:52;3.78;;;1.70;;
65799;SDS011;52544;48.116;11.660;2023-02-02T13:22:50;2.85;;;1.50;;
65799;SDS011;52544;48.116;11.660;2023-02-02T13:25:25;4.60;;;1.98;;
65799;SDS011;52544;48.116;11.660;2023-02-02T13:27:54;5.43;;;1.98;;
65799;SDS011;52544;48.116;11.660;2023-02-02T13:30:40;4.05;;;2.00;;
65799;SDS011;52544;48.116;11.660;2023-02-02T13:33:15;4.20;;;2.17;;
65799;SDS011;52544;48.116;11.660;2023-02-02T13:35:53;4.93;;;1.63;;
65799;SDS011;52544;48.116;11.660;2023-02-02T13:38:23;4.68;;;1.45;;
65799;SDS011;52544;48.116;11.660;2023-02-02T13:40:52;3.55;;;1.73;;
65799;SDS011;52544;48.116;11.660;2023-02-02T13:49:09;6.07;;;1.83;;
65799;SDS011;52544;48.116;11.660;2023-02-02T14:00:24;5.47;;;1.80;;
65799;SDS011;52544;48.116;11.660;2023-02-02T14:02:55;3.72;;;2.00;;
65799;SDS011;52544;48.116;11.660;2023-02-02T14:05:24;5.72;;;1.98;;
65799;SDS011;52544;48.116;11.660;2023-02-02T14:07:54;6.25;;;2.83;;
65799;SDS011;52544;48.116;11.660;2023-02-02T14:13:42;4.32;;;2.10;;
65799;SDS011;52544;48.116;11.660;2023-02-02T14:19:00;5.45;;;2.10;;
65799;SDS011;52544;48.116;11.660;2023-02-02T14:23:55;6.63;;;2.60;;
65799;SDS011;52544;48.116;11.660;2023-02-02T14:31:58;6.03;;;2.08;;
65799;SDS011;52544;48.116;11.660;2023-02-02T14:34:43;7.60;;;2.00;;
65799;SDS011;52544;48.116;11.660;2023-02-02T14:45:33;5.38;;;2.30;;
65799;SDS011;52544;48.116;11.660;2023-02-02T14:53:27;3.80;;;2.08;;
65799;SDS011;52544;48.116;11.660;2023-02-02T14:55:59;4.18;;;2.08;;
65799;SDS011;52544;48.116;11.660;2023-02-02T14:58:32;6.32;;;2.20;;
65799;SDS011;52544;48.116;11.660;2023-02-02T15:01:11;6.03;;;2.22;;
65799;SDS011;52544;48.116;11.660;2023-02-02T15:06:46;4.82;;;2.30;;
65799;SDS011;52544;48.116;11.660;2023-02-02T15:14:35;4.28;;;1.90;;
65799;SDS011;52544;48.116;11.660;2023-02-02T15:17:24;5.40;;;2.28;;
65799;SDS011;52544;48.116;11.660;2023-02-02T15:20:05;5.18;;;1.85;;
65799;SDS011;52544;48.116;11.660;2023-02-02T15:27:59;6.53;;;1.75;;
65799;SDS011;52544;48.116;11.660;2023-02-02T15:30:31;5.65;;;2.05;;
65799;SDS011;52544;48.116;11.660;2023-02-02T15:33:00;7.47;;;2.08;;
65799;SDS011;52544;48.116;11.660;2023-02-02T15:35:36;5.30;;;2.25;;
65799;SDS011;52544;48.116;11.660;2023-02-02T15:38:03;5.20;;;1.67;;
65799;SDS011;52544;48.116;11.660;2023-02-02T15:40:32;4.68;;;2.25;;
65799;SDS011;52544;48.116;11.660;2023-02-02T15:43:02;5.50;;;2.33;;
65799;SDS011;52544;48.116;11.660;2023-02-02T15:51:12;6.15;;;2.50;;
65799;SDS011;52544;48.116;11.660;2023-02-02T15:58:50;5.20;;;2.00;;
65799;SDS011;52544;48.116;11.660;2023-02-02T16:01:18;10.65;;;5.05;;
65799;SDS011;52544;48.116;11.660;2023-02-02T16:03:55;4.32;;;2.10;;
65799;SDS011;52544;48.116;11.660;2023-02-02T16:06:32;2.45;;;1.67;;
65799;SDS011;52544;48.116;11.660;2023-02-02T16:09:01;3.80;;;2.25;;
65799;SDS011;52544;48.116;11.660;2023-02-02T16:11:27;3.65;;;1.90;;
65799;SDS011;52544;48.116;11.660;2023-02-02T16:14:04;4.53;;;2.08;;
65799;SDS011;52544;48.116;11.660;2023-02-02T16:16:36;5.55;;;2.10;;
65799;SDS011;52544;48.116;11.660;2023-02-02T16:19:19;5.43;;;2.08;;
65799;SDS011;52544;48.116;11.660;2023-02-02T16:24:25;3.45;;;1.80;;
65799;SDS011;52544;48.116;11.660;2023-02-02T16:26:56;7.63;;;2.45;;
65799;SDS011;52544;48.116;11.660;2023-02-02T16:29:23;7.60;;;2.65;;
65799;SDS011;52544;48.116;11.660;2023-02-02T16:31:52;3.72;;;2.03;;
65799;SDS011;52544;48.116;11.660;2023-02-02T16:37:07;5.57;;;2.53;;
65799;SDS011;52544;48.116;11.660;2023-02-02T16:39:47;9.57;;;5.03;;
65799;SDS011;52544;48.116;11.660;2023-02-02T16:44:55;8.18;;;4.28;;
65799;SDS011;52544;48.116;11.660;2023-02-02T16:49:54;11.15;;;5.43;;
65799;SDS011;52544;48.116;11.660;2023-02-02T16:52:31;7.78;;;3.58;;
65799;SDS011;52544;48.116;11.660;2023-02-02T16:54:58;20.70;;;9.50;;
65799;SDS011;52544;48.116;11.660;2023-02-02T16:57:28;11.10;;;5.47;;
65799;SDS011;52544;48.116;11.660;2023-02-02T16:59:56;10.82;;;5.60;;
65799;SDS011;52544;48.116;11.660;2023-02-02T17:02:26;8.50;;;3.70;;
65799;SDS011;52544;48.116;11.660;2023-02-02T17:05:02;9.10;;;4.97;;
65799;SDS011;52544;48.116;11.660;2023-02-02T17:07:41;15.40;;;4.75;;
65799;SDS011;52544;48.116;11.660;2023-02-02T17:10:27;8.20;;;4.93;;
65799;SDS011;52544;48.116;11.660;2023-02-02T17:12:56;8.30;;;3.92;;
65799;SDS011;52544;48.116;11.660;2023-02-02T17:15:24;11.38;;;4.15;;
65799;SDS011;52544;48.116;11.660;2023-02-02T17:17:53;6.53;;;3.72;;
65799;SDS011;52544;48.116;11.660;2023-02-02T17:20:19;27.50;;;15.27;;
65799;SDS011;52544;48.116;11.660;2023-02-02T17:22:46;27.85;;;14.73;;
65799;SDS011;52544;48.116;11.660;2023-02-02T17:25:14;21.52;;;13.32;;
65799;SDS011;52544;48.116;11.660;2023-02-02T17:27:42;14.77;;;6.10;;
65799;SDS011;52544;48.116;11.660;2023-02-02T17:30:09;12.85;;;8.70;;
65799;SDS011;52544;48.116;11.660;2023-02-02T17:32:43;12.55;;;5.35;;
65799;SDS011;52544;48.116;11.660;2023-02-02T17:35:15;9.77;;;4.75;;
65799;SDS011;52544;48.116;11.660;2023-02-02T17:37:43;10.15;;;3.25;;
65799;SDS011;52544;48.116;11.660;2023-02-02T17:40:15;10.70;;;6.38;;
65799;SDS011;52544;48.116;11.660;2023-02-02T17:42:42;11.13;;;3.85;;
65799;SDS011;52544;48.116;11.660;2023-02-02T17:45:12;7.20;;;3.75;;
65799;SDS011;52544;48.116;11.660;2023-02-02T17:47:41;6.30;;;2.80;;
65799;SDS011;52544;48.116;11.660;2023-02-02T17:50:07;4.68;;;3.00;;
65799;SDS011;52544;48.116;11.660;2023-02-02T17:52:33;7.95;;;3.85;;
65799;SDS011;52544;48.116;11.660;2023-02-02T17:55:01;6.70;;;4.30;;
65799;SDS011;52544;48.116;11.660;2023-02-02T17:57:26;6.43;;;4.20;;